sensor_id;sensor_type;location;lat;lon;timestamp;pressure;altitude;pressure_sealevel;temperature;humidity
28354;BME280;15603;50.878;8.036;2023-03-17T00:01:53;144515.28;;;5.29;88.07
28354;BME280;15603;50.878;8.036;2023-03-17T00:04:22;144613.34;;;5.71;88.51
28354;BME280;15603;50.878;8.036;2023-03-17T00:06:51;144621.84;;;5.75;88.31
28354;BME280;15603;50.878;8.036;2023-03-17T00:09:19;144609.72;;;5.69;88.32
28354;BME280;15603;50.878;8.036;2023-03-17T00:11:47;144607.31;;;5.68;88.59
28354;BME280;15603;50.878;8.036;2023-03-17T00:14:14;144597.63;;;5.64;88.63
28354;BME280;15603;50.878;8.036;2023-03-17T00:16:44;144624.28;;;5.76;88.16
28354;BME280;15603;50.878;8.036;2023-03-17T00:19:22;144612.16;;;5.70;88.09
28354;BME280;15603;50.878;8.036;2023-03-17T00:21:52;144641.22;;;5.83;87.74
28354;BME280;15603;50.878;8.036;2023-03-17T00:24:19;144636.38;;;5.81;87.50
28354;BME280;15603;50.878;8.036;2023-03-17T00:26:46;144624.28;;;5.76;87.18
28354;BME280;15603;50.878;8.036;2023-03-17T00:29:14;144641.22;;;5.83;87.07
28354;BME280;15603;50.878;8.036;2023-03-17T00:31:43;144632.72;;;5.79;87.51
28354;BME280;15603;50.878;8.036;2023-03-17T00:34:15;144647.28;;;5.85;87.43
28354;BME280;15603;50.878;8.036;2023-03-17T00:36:45;144636.38;;;5.81;87.24
28354;BME280;15603;50.878;8.036;2023-03-17T00:39:14;144638.81;;;5.82;87.74
28354;BME280;15603;50.878;8.036;2023-03-17T00:41:41;144641.22;;;5.83;87.15
28354;BME280;15603;50.878;8.036;2023-03-17T00:44:09;144620.63;;;5.74;87.54
28354;BME280;15603;50.878;8.036;2023-03-17T00:46:38;144615.81;;;5.72;87.88
28354;BME280;15603;50.878;8.036;2023-03-17T00:49:16;144597.63;;;5.64;88.22
28354;BME280;15603;50.878;8.036;2023-03-17T00:51:47;144612.16;;;5.70;88.58
28354;BME280;15603;50.878;8.036;2023-03-17T00:54:16;144595.19;;;5.63;88.47
28354;BME280;15603;50.878;8.036;2023-03-17T00:56:44;144587.94;;;5.60;89.13
28354;BME280;15603;50.878;8.036;2023-03-17T00:59:23;144568.53;;;5.52;88.85
28354;BME280;15603;50.878;8.036;2023-03-17T01:01:52;144585.50;;;5.59;88.50
28354;BME280;15603;50.878;8.036;2023-03-17T01:04:20;144539.50;;;5.40;89.56
28354;BME280;15603;50.878;8.036;2023-03-17T01:06:48;144539.50;;;5.40;90.12
28354;BME280;15603;50.878;8.036;2023-03-17T01:09:18;144520.13;;;5.31;90.24
28354;BME280;15603;50.878;8.036;2023-03-17T01:11:46;144549.19;;;5.44;89.69
28354;BME280;15603;50.878;8.036;2023-03-17T01:14:14;144505.59;;;5.25;89.45
28354;BME280;15603;50.878;8.036;2023-03-17T01:16:41;144547.97;;;5.43;89.03
28354;BME280;15603;50.878;8.036;2023-03-17T01:19:13;144549.19;;;5.44;89.22
28354;BME280;15603;50.878;8.036;2023-03-17T01:21:40;144541.88;;;5.41;89.43
28354;BME280;15603;50.878;8.036;2023-03-17T01:24:08;144537.06;;;5.39;89.61
28354;BME280;15603;50.878;8.036;2023-03-17T01:26:36;144522.53;;;5.32;89.68
28354;BME280;15603;50.878;8.036;2023-03-17T01:29:04;144517.69;;;5.30;89.53
28354;BME280;15603;50.878;8.036;2023-03-17T01:31:33;144540.69;;;5.40;89.44
28354;BME280;15603;50.878;8.036;2023-03-17T01:34:00;144528.63;;;5.35;89.57
28354;BME280;15603;50.878;8.036;2023-03-17T01:36:28;144524.97;;;5.34;89.03
28354;BME280;15603;50.878;8.036;2023-03-17T01:38:55;144533.47;;;5.37;89.47
28354;BME280;15603;50.878;8.036;2023-03-17T01:41:23;144423.25;;;4.90;89.19
28354;BME280;15603;50.878;8.036;2023-03-17T01:43:50;144520.13;;;5.31;89.22
28354;BME280;15603;50.878;8.036;2023-03-17T01:46:23;144526.16;;;5.34;89.80
28354;BME280;15603;50.878;8.036;2023-03-17T01:53:54;144524.97;;;5.34;89.44
28354;BME280;15603;50.878;8.036;2023-03-17T01:56:22;144532.22;;;5.37;88.92
28354;BME280;15603;50.878;8.036;2023-03-17T01:58:51;144532.22;;;5.37;88.54
28354;BME280;15603;50.878;8.036;2023-03-17T02:01:25;144529.81;;;5.36;89.00
28354;BME280;15603;50.878;8.036;2023-03-17T02:03:53;144532.22;;;5.37;88.85
28354;BME280;15603;50.878;8.036;2023-03-17T02:06:20;144527.38;;;5.35;89.35
28354;BME280;15603;50.878;8.036;2023-03-17T02:08:48;144528.63;;;5.35;88.35
28354;BME280;15603;50.878;8.036;2023-03-17T02:11:15;144505.59;;;5.25;89.37
28354;BME280;15603;50.878;8.036;2023-03-17T02:13:42;144527.38;;;5.35;89.29
28354;BME280;15603;50.878;8.036;2023-03-17T02:16:16;144488.66;;;5.18;88.92
28354;BME280;15603;50.878;8.036;2023-03-17T02:18:46;144486.22;;;5.17;90.17
28354;BME280;15603;50.878;8.036;2023-03-17T02:21:26;144472.88;;;5.11;89.85
28354;BME280;15603;50.878;8.036;2023-03-17T02:23:54;144372.44;;;4.69;88.81
28354;BME280;15603;50.878;8.036;2023-03-17T02:26:22;144472.88;;;5.11;89.40
28354;BME280;15603;50.878;8.036;2023-03-17T02:28:51;144454.72;;;5.04;90.14
28354;BME280;15603;50.878;8.036;2023-03-17T02:31:19;144481.38;;;5.15;90.30
28354;BME280;15603;50.878;8.036;2023-03-17T02:33:47;144474.13;;;5.12;90.13
28354;BME280;15603;50.878;8.036;2023-03-17T02:36:14;144459.56;;;5.06;90.10
28354;BME280;15603;50.878;8.036;2023-03-17T02:38:44;144411.19;;;4.85;90.25
28354;BME280;15603;50.878;8.036;2023-03-17T02:41:11;144440.22;;;4.98;90.02
28354;BME280;15603;50.878;8.036;2023-03-17T02:43:38;144331.28;;;4.51;90.63
28354;BME280;15603;50.878;8.036;2023-03-17T02:46:07;144423.25;;;4.90;91.40
28354;BME280;15603;50.878;8.036;2023-03-17T02:48:38;144424.50;;;4.91;91.28
28354;BME280;15603;50.878;8.036;2023-03-17T02:51:06;144425.69;;;4.91;90.72
28354;BME280;15603;50.878;8.036;2023-03-17T02:53:33;144403.91;;;4.82;90.57
28354;BME280;15603;50.878;8.036;2023-03-17T02:56:00;144424.50;;;4.91;90.69
28354;BME280;15603;50.878;8.036;2023-03-17T02:58:28;144411.19;;;4.85;91.01
28354;BME280;15603;50.878;8.036;2023-03-17T03:00:55;144344.59;;;4.57;91.17
28354;BME280;15603;50.878;8.036;2023-03-17T03:03:22;144429.34;;;4.93;90.45
28354;BME280;15603;50.878;8.036;2023-03-17T03:05:49;144411.19;;;4.85;90.73
28354;BME280;15603;50.878;8.036;2023-03-17T03:08:16;144409.94;;;4.85;91.09
28354;BME280;15603;50.878;8.036;2023-03-17T03:10:43;144420.84;;;4.89;90.32
28354;BME280;15603;50.878;8.036;2023-03-17T03:13:11;144416.00;;;4.87;90.21
28354;BME280;15603;50.878;8.036;2023-03-17T03:15:41;144417.22;;;4.88;90.28
28354;BME280;15603;50.878;8.036;2023-03-17T03:18:09;144413.56;;;4.86;90.12
28354;BME280;15603;50.878;8.036;2023-03-17T03:20:36;144406.34;;;4.83;90.17
28354;BME280;15603;50.878;8.036;2023-03-17T03:23:03;144382.09;;;4.73;90.60
28354;BME280;15603;50.878;8.036;2023-03-17T03:25:30;144379.69;;;4.72;91.39
28354;BME280;15603;50.878;8.036;2023-03-17T03:27:58;144382.09;;;4.73;90.86
28354;BME280;15603;50.878;8.036;2023-03-17T03:30:25;144399.06;;;4.80;91.02
28354;BME280;15603;50.878;8.036;2023-03-17T03:32:52;144413.56;;;4.86;90.56
28354;BME280;15603;50.878;8.036;2023-03-17T03:35:19;144411.19;;;4.85;90.22
28354;BME280;15603;50.878;8.036;2023-03-17T03:37:47;144413.56;;;4.86;90.05
28354;BME280;15603;50.878;8.036;2023-03-17T03:40:14;144389.38;;;4.76;90.37
28354;BME280;15603;50.878;8.036;2023-03-17T03:42:41;144406.34;;;4.83;90.51
28354;BME280;15603;50.878;8.036;2023-03-17T03:45:09;144374.88;;;4.70;91.38
28354;BME280;15603;50.878;8.036;2023-03-17T03:47:36;144380.91;;;4.72;90.65
28354;BME280;15603;50.878;8.036;2023-03-17T03:50:03;144382.09;;;4.73;90.81
28354;BME280;15603;50.878;8.036;2023-03-17T03:52:31;144370.03;;;4.68;90.42
28354;BME280;15603;50.878;8.036;2023-03-17T03:54:58;144361.56;;;4.64;91.59
28354;BME280;15603;50.878;8.036;2023-03-17T03:57:25;144345.78;;;4.58;91.30
28354;BME280;15603;50.878;8.036;2023-03-17T03:59:52;144353.06;;;4.61;91.39
28354;BME280;15603;50.878;8.036;2023-03-17T04:02:19;144361.56;;;4.64;90.48
28354;BME280;15603;50.878;8.036;2023-03-17T04:04:46;144303.47;;;4.40;92.55
28354;BME280;15603;50.878;8.036;2023-03-17T04:07:14;144321.59;;;4.47;92.42
28354;BME280;15603;50.878;8.036;2023-03-17T04:09:41;144302.25;;;4.39;91.75
28354;BME280;15603;50.878;8.036;2023-03-17T04:12:08;144308.28;;;4.42;92.47
28354;BME280;15603;50.878;8.036;2023-03-17T04:14:35;144309.50;;;4.42;92.82
28354;BME280;15603;50.878;8.036;2023-03-17T04:17:02;144324.06;;;4.48;92.49
28354;BME280;15603;50.878;8.036;2023-03-17T04:19:31;144338.56;;;4.55;91.33
28354;BME280;15603;50.878;8.036;2023-03-17T04:21:58;144322.81;;;4.48;92.49
28354;BME280;15603;50.878;8.036;2023-03-17T04:24:25;144328.88;;;4.50;92.02
28354;BME280;15603;50.878;8.036;2023-03-17T04:26:53;144332.47;;;4.52;91.31
28354;BME280;15603;50.878;8.036;2023-03-17T04:29:20;144337.31;;;4.54;90.63
28354;BME280;15603;50.878;8.036;2023-03-17T04:31:47;144333.72;;;4.52;91.55
28354;BME280;15603;50.878;8.036;2023-03-17T04:34:16;144344.59;;;4.57;90.81
28354;BME280;15603;50.878;8.036;2023-03-17T04:36:45;144353.06;;;4.61;90.61
28354;BME280;15603;50.878;8.036;2023-03-17T04:39:14;144359.09;;;4.63;90.11
28354;BME280;15603;50.878;8.036;2023-03-17T04:41:41;144337.31;;;4.54;90.73
28354;BME280;15603;50.878;8.036;2023-03-17T04:44:08;144321.59;;;4.47;91.45
28354;BME280;15603;50.878;8.036;2023-03-17T04:46:35;144319.16;;;4.46;91.34
28354;BME280;15603;50.878;8.036;2023-03-17T04:49:03;144294.97;;;4.36;92.15
28354;BME280;15603;50.878;8.036;2023-03-17T04:51:30;144276.84;;;4.28;91.97
28354;BME280;15603;50.878;8.036;2023-03-17T04:53:57;144282.88;;;4.31;92.02
28354;BME280;15603;50.878;8.036;2023-03-17T04:56:24;144285.31;;;4.32;91.84
28354;BME280;15603;50.878;8.036;2023-03-17T04:58:51;144273.19;;;4.27;92.38
28354;BME280;15603;50.878;8.036;2023-03-17T05:01:19;144270.81;;;4.26;92.98
28354;BME280;15603;50.878;8.036;2023-03-17T05:03:47;144284.13;;;4.31;91.40
28354;BME280;15603;50.878;8.036;2023-03-17T05:06:15;144258.69;;;4.21;91.61
28354;BME280;15603;50.878;8.036;2023-03-17T05:08:42;144303.47;;;4.40;91.22
28354;BME280;15603;50.878;8.036;2023-03-17T05:11:13;144278.03;;;4.29;91.27
28354;BME280;15603;50.878;8.036;2023-03-17T05:13:40;144267.16;;;4.24;91.46
28354;BME280;15603;50.878;8.036;2023-03-17T05:16:08;144282.88;;;4.31;91.79
28354;BME280;15603;50.878;8.036;2023-03-17T05:18:36;144294.97;;;4.36;91.48
28354;BME280;15603;50.878;8.036;2023-03-17T05:21:06;144278.03;;;4.29;91.81
28354;BME280;15603;50.878;8.036;2023-03-17T05:23:33;144198.22;;;3.95;91.51
28354;BME280;15603;50.878;8.036;2023-03-17T05:26:01;144269.59;;;4.25;91.57
28354;BME280;15603;50.878;8.036;2023-03-17T05:28:28;144269.59;;;4.25;91.65
28354;BME280;15603;50.878;8.036;2023-03-17T05:30:55;144270.81;;;4.26;91.76
28354;BME280;15603;50.878;8.036;2023-03-17T05:33:23;144279.28;;;4.29;91.94
28354;BME280;15603;50.878;8.036;2023-03-17T05:35:50;144286.50;;;4.32;91.37
28354;BME280;15603;50.878;8.036;2023-03-17T05:38:18;144298.63;;;4.38;91.30
28354;BME280;15603;50.878;8.036;2023-03-17T05:40:48;144296.19;;;4.37;89.97
28354;BME280;15603;50.878;8.036;2023-03-17T05:43:15;144299.81;;;4.38;90.63
28354;BME280;15603;50.878;8.036;2023-03-17T05:45:43;144320.41;;;4.47;90.36
28354;BME280;15603;50.878;8.036;2023-03-17T05:48:11;144316.78;;;4.45;89.87
28354;BME280;15603;50.878;8.036;2023-03-17T05:50:38;144314.34;;;4.44;90.81
28354;BME280;15603;50.878;8.036;2023-03-17T05:53:07;144297.44;;;4.37;90.73
28354;BME280;15603;50.878;8.036;2023-03-17T05:55:34;144211.53;;;4.01;90.50
28354;BME280;15603;50.878;8.036;2023-03-17T05:58:02;144309.50;;;4.42;89.96
28354;BME280;15603;50.878;8.036;2023-03-17T06:00:31;144299.81;;;4.38;90.85
28354;BME280;15603;50.878;8.036;2023-03-17T06:02:58;144284.13;;;4.31;89.89
28354;BME280;15603;50.878;8.036;2023-03-17T06:05:25;144297.44;;;4.37;90.84
28354;BME280;15603;50.878;8.036;2023-03-17T06:07:53;144297.44;;;4.37;90.41
28354;BME280;15603;50.878;8.036;2023-03-17T06:10:22;144316.78;;;4.45;89.42
28354;BME280;15603;50.878;8.036;2023-03-17T06:12:50;144315.56;;;4.45;90.89
28354;BME280;15603;50.878;8.036;2023-03-17T06:15:17;144319.16;;;4.46;90.41
28354;BME280;15603;50.878;8.036;2023-03-17T06:17:44;144319.16;;;4.46;89.07
28354;BME280;15603;50.878;8.036;2023-03-17T06:20:12;144338.56;;;4.55;89.75
28354;BME280;15603;50.878;8.036;2023-03-17T06:22:40;144340.97;;;4.56;89.82
28354;BME280;15603;50.878;8.036;2023-03-17T06:25:27;144359.09;;;4.63;89.71
28354;BME280;15603;50.878;8.036;2023-03-17T06:27:54;144373.63;;;4.69;88.62
28354;BME280;15603;50.878;8.036;2023-03-17T06:30:22;144374.88;;;4.70;88.54
28354;BME280;15603;50.878;8.036;2023-03-17T06:32:49;144396.66;;;4.79;88.33
28354;BME280;15603;50.878;8.036;2023-03-17T06:35:16;144385.75;;;4.75;87.75
28354;BME280;15603;50.878;8.036;2023-03-17T06:37:44;144430.53;;;4.94;87.64
28354;BME280;15603;50.878;8.036;2023-03-17T06:40:11;144437.81;;;4.97;87.57
28354;BME280;15603;50.878;8.036;2023-03-17T06:42:38;144459.56;;;5.06;87.52
28354;BME280;15603;50.878;8.036;2023-03-17T06:45:06;144489.84;;;5.19;86.15
28354;BME280;15603;50.878;8.036;2023-03-17T06:47:35;144522.53;;;5.32;86.44
28354;BME280;15603;50.878;8.036;2023-03-17T06:50:04;144546.78;;;5.43;85.72
28354;BME280;15603;50.878;8.036;2023-03-17T06:52:31;144551.63;;;5.45;85.51
28354;BME280;15603;50.878;8.036;2023-03-17T06:54:58;144561.31;;;5.49;85.44
28354;BME280;15603;50.878;8.036;2023-03-17T06:57:25;144577.03;;;5.56;85.25
28354;BME280;15603;50.878;8.036;2023-03-17T06:59:53;144597.63;;;5.64;85.06
28354;BME280;15603;50.878;8.036;2023-03-17T07:02:20;144617.00;;;5.73;83.88
28354;BME280;15603;50.878;8.036;2023-03-17T07:04:47;144641.22;;;5.83;83.96
28354;BME280;15603;50.878;8.036;2023-03-17T07:07:14;144660.63;;;5.91;83.66
28354;BME280;15603;50.878;8.036;2023-03-17T07:09:42;144706.69;;;6.11;82.59
28354;BME280;15603;50.878;8.036;2023-03-17T07:12:09;144717.59;;;6.15;81.65
28354;BME280;15603;50.878;8.036;2023-03-17T07:14:36;144781.78;;;6.42;80.26
28354;BME280;15603;50.878;8.036;2023-03-17T07:17:03;144784.25;;;6.43;79.54
28354;BME280;15603;50.878;8.036;2023-03-17T07:19:32;144755.13;;;6.31;80.23
28354;BME280;15603;50.878;8.036;2023-03-17T07:21:59;144818.16;;;6.58;78.72
28354;BME280;15603;50.878;8.036;2023-03-17T07:24:26;144831.50;;;6.63;78.53
28354;BME280;15603;50.878;8.036;2023-03-17T07:26:53;144824.25;;;6.60;78.48
28354;BME280;15603;50.878;8.036;2023-03-17T07:29:20;144839.97;;;6.67;77.70
28354;BME280;15603;50.878;8.036;2023-03-17T07:31:48;144875.16;;;6.82;77.73
28354;BME280;15603;50.878;8.036;2023-03-17T07:34:16;144883.63;;;6.85;76.74
28354;BME280;15603;50.878;8.036;2023-03-17T07:36:43;144917.56;;;7.00;76.57
28354;BME280;15603;50.878;8.036;2023-03-17T07:39:10;144946.69;;;7.12;76.13
28354;BME280;15603;50.878;8.036;2023-03-17T07:41:38;144958.78;;;7.17;75.62
28354;BME280;15603;50.878;8.036;2023-03-17T07:44:09;144973.31;;;7.23;75.86
28354;BME280;15603;50.878;8.036;2023-03-17T07:46:37;144981.81;;;7.27;75.33
28354;BME280;15603;50.878;8.036;2023-03-17T07:49:04;144987.91;;;7.30;75.11
28354;BME280;15603;50.878;8.036;2023-03-17T07:51:32;145004.84;;;7.37;75.07
28354;BME280;15603;50.878;8.036;2023-03-17T07:53:59;145014.53;;;7.41;74.82
28354;BME280;15603;50.878;8.036;2023-03-17T07:56:31;145030.34;;;7.47;74.47
28354;BME280;15603;50.878;8.036;2023-03-17T07:58:58;145041.22;;;7.52;74.29
28354;BME280;15603;50.878;8.036;2023-03-17T08:01:26;145052.16;;;7.57;74.31
28354;BME280;15603;50.878;8.036;2023-03-17T08:03:54;145071.56;;;7.65;73.85
28354;BME280;15603;50.878;8.036;2023-03-17T08:06:22;145092.22;;;7.74;73.40
28354;BME280;15603;50.878;8.036;2023-03-17T08:08:51;145122.50;;;7.86;72.68
28354;BME280;15603;50.878;8.036;2023-03-17T08:11:19;145146.78;;;7.97;71.84
28354;BME280;15603;50.878;8.036;2023-03-17T08:13:47;145168.59;;;8.06;71.22
28354;BME280;15603;50.878;8.036;2023-03-17T08:16:14;145211.09;;;8.24;70.96
28354;BME280;15603;50.878;8.036;2023-03-17T08:18:41;145240.19;;;8.36;70.39
28354;BME280;15603;50.878;8.036;2023-03-17T08:21:08;145264.50;;;8.47;70.01
28354;BME280;15603;50.878;8.036;2023-03-17T08:23:36;145292.47;;;8.58;69.33
28354;BME280;15603;50.878;8.036;2023-03-17T08:26:03;145339.78;;;8.78;69.33
28354;BME280;15603;50.878;8.036;2023-03-17T08:28:31;145354.34;;;8.84;68.41
28354;BME280;15603;50.878;8.036;2023-03-17T08:31:09;145451.44;;;9.26;67.60
28354;BME280;15603;50.878;8.036;2023-03-17T08:33:39;145400.47;;;9.04;67.48
28354;BME280;15603;50.878;8.036;2023-03-17T08:36:09;145538.94;;;9.62;67.27
28354;BME280;15603;50.878;8.036;2023-03-17T08:38:38;145543.78;;;9.65;66.35
28354;BME280;15603;50.878;8.036;2023-03-17T08:41:08;145503.69;;;9.48;66.82
28354;BME280;15603;50.878;8.036;2023-03-17T08:43:36;145555.91;;;9.70;66.27
28354;BME280;15603;50.878;8.036;2023-03-17T08:46:12;145546.19;;;9.66;66.79
28354;BME280;15603;50.878;8.036;2023-03-17T08:48:40;145521.91;;;9.55;66.58
28354;BME280;15603;50.878;8.036;2023-03-17T08:51:07;145504.91;;;9.48;66.38
28354;BME280;15603;50.878;8.036;2023-03-17T08:53:34;145468.47;;;9.33;66.80
28354;BME280;15603;50.878;8.036;2023-03-17T08:56:02;145470.91;;;9.34;67.96
28354;BME280;15603;50.878;8.036;2023-03-17T08:58:30;145495.19;;;9.44;69.08
28354;BME280;15603;50.878;8.036;2023-03-17T09:00:59;145475.78;;;9.36;68.40
28354;BME280;15603;50.878;8.036;2023-03-17T09:03:26;145463.63;;;9.31;67.92
28354;BME280;15603;50.878;8.036;2023-03-17T09:05:55;145427.19;;;9.15;68.80
28354;BME280;15603;50.878;8.036;2023-03-17T09:08:22;145514.59;;;9.52;69.16
28354;BME280;15603;50.878;8.036;2023-03-17T09:10:49;145515.84;;;9.53;67.98
28354;BME280;15603;50.878;8.036;2023-03-17T09:13:17;145541.34;;;9.63;66.50
28354;BME280;15603;50.878;8.036;2023-03-17T09:15:44;145558.34;;;9.71;66.83
28354;BME280;15603;50.878;8.036;2023-03-17T09:18:12;145585.09;;;9.82;67.50
28354;BME280;15603;50.878;8.036;2023-03-17T09:20:40;145605.72;;;9.91;66.86
28354;BME280;15603;50.878;8.036;2023-03-17T09:23:08;145619.06;;;9.96;67.67
28354;BME280;15603;50.878;8.036;2023-03-17T09:25:37;145608.16;;;9.92;67.26
28354;BME280;15603;50.878;8.036;2023-03-17T09:28:04;145628.78;;;10.00;67.76
28354;BME280;15603;50.878;8.036;2023-03-17T09:30:33;145640.97;;;10.06;68.12
28354;BME280;15603;50.878;8.036;2023-03-17T09:33:00;145654.31;;;10.11;67.93
28354;BME280;15603;50.878;8.036;2023-03-17T09:35:27;145682.25;;;10.23;67.97
28354;BME280;15603;50.878;8.036;2023-03-17T09:37:57;145706.59;;;10.33;66.79
28354;BME280;15603;50.878;8.036;2023-03-17T09:40:31;145733.34;;;10.45;66.42
28354;BME280;15603;50.878;8.036;2023-03-17T09:45:55;145775.91;;;10.63;66.24
28354;BME280;15603;50.878;8.036;2023-03-17T09:48:40;145828.16;;;10.85;66.72
28354;BME280;15603;50.878;8.036;2023-03-17T09:51:12;145823.31;;;10.83;66.64
28354;BME280;15603;50.878;8.036;2023-03-17T09:53:51;145749.16;;;10.51;65.37
28354;BME280;15603;50.878;8.036;2023-03-17T09:56:21;145842.75;;;10.91;66.14
28354;BME280;15603;50.878;8.036;2023-03-17T09:59:05;145869.50;;;11.02;65.25
28354;BME280;15603;50.878;8.036;2023-03-17T10:01:33;145887.72;;;11.10;64.95
28354;BME280;15603;50.878;8.036;2023-03-17T10:04:01;145925.41;;;11.26;65.70
28354;BME280;15603;50.878;8.036;2023-03-17T10:06:35;145959.50;;;11.40;64.31
28354;BME280;15603;50.878;8.036;2023-03-17T10:11:49;145905.97;;;11.17;62.96
28354;BME280;15603;50.878;8.036;2023-03-17T10:14:34;146025.16;;;11.68;63.21
28354;BME280;15603;50.878;8.036;2023-03-17T10:17:15;146073.81;;;11.88;63.50
28354;BME280;15603;50.878;8.036;2023-03-17T10:19:54;146088.47;;;11.94;62.95
28354;BME280;15603;50.878;8.036;2023-03-17T10:22:33;146094.53;;;11.97;63.05
28354;BME280;15603;50.878;8.036;2023-03-17T10:25:12;146118.88;;;12.07;63.16
28354;BME280;15603;50.878;8.036;2023-03-17T10:27:42;146100.63;;;12.00;62.38
28354;BME280;15603;50.878;8.036;2023-03-17T10:30:16;146120.09;;;12.08;62.13
28354;BME280;15603;50.878;8.036;2023-03-17T10:32:44;146090.91;;;11.95;62.07
28354;BME280;15603;50.878;8.036;2023-03-17T10:35:13;146155.41;;;12.23;61.88
28354;BME280;15603;50.878;8.036;2023-03-17T10:37:42;146159.06;;;12.24;62.32
28354;BME280;15603;50.878;8.036;2023-03-17T10:40:22;146187.03;;;12.36;62.38
28354;BME280;15603;50.878;8.036;2023-03-17T10:43:01;146199.19;;;12.41;62.13
28354;BME280;15603;50.878;8.036;2023-03-17T10:45:36;146194.31;;;12.39;62.57
28354;BME280;15603;50.878;8.036;2023-03-17T10:48:16;146222.28;;;12.51;62.70
28354;BME280;15603;50.878;8.036;2023-03-17T10:50:45;146225.97;;;12.52;62.03
28354;BME280;15603;50.878;8.036;2023-03-17T10:53:21;146229.63;;;12.54;62.38
28354;BME280;15603;50.878;8.036;2023-03-17T10:55:58;146224.75;;;12.52;62.31
28354;BME280;15603;50.878;8.036;2023-03-17T10:58:44;146229.63;;;12.54;62.72
28354;BME280;15603;50.878;8.036;2023-03-17T11:01:28;146222.28;;;12.51;62.15
28354;BME280;15603;50.878;8.036;2023-03-17T11:03:55;146227.22;;;12.53;62.40
28354;BME280;15603;50.878;8.036;2023-03-17T11:06:32;146232.06;;;12.55;62.04
28354;BME280;15603;50.878;8.036;2023-03-17T11:09:11;146246.66;;;12.61;62.06
28354;BME280;15603;50.878;8.036;2023-03-17T11:11:45;146262.47;;;12.68;61.70
28354;BME280;15603;50.878;8.036;2023-03-17T11:14:15;146296.56;;;12.82;61.64
28354;BME280;15603;50.878;8.036;2023-03-17T11:16:53;146341.63;;;13.01;61.40
28354;BME280;15603;50.878;8.036;2023-03-17T11:24:30;146441.47;;;13.43;59.80
28354;BME280;15603;50.878;8.036;2023-03-17T11:27:11;146480.47;;;13.60;58.87
28354;BME280;15603;50.878;8.036;2023-03-17T11:32:35;146538.94;;;13.84;57.92
28354;BME280;15603;50.878;8.036;2023-03-17T11:38:24;146587.66;;;14.05;57.88
28354;BME280;15603;50.878;8.036;2023-03-17T11:43:52;146648.59;;;14.30;56.93
28354;BME280;15603;50.878;8.036;2023-03-17T11:46:27;146670.53;;;14.40;56.30
28354;BME280;15603;50.878;8.036;2023-03-17T11:52:03;146724.19;;;14.62;56.31
28354;BME280;15603;50.878;8.036;2023-03-17T11:57:30;146647.41;;;14.30;55.92
28354;BME280;15603;50.878;8.036;2023-03-17T12:00:05;146725.44;;;14.63;54.66
28354;BME280;15603;50.878;8.036;2023-03-17T12:02:53;146802.19;;;14.95;54.65
28354;BME280;15603;50.878;8.036;2023-03-17T12:05:25;146836.34;;;15.09;53.95
28354;BME280;15603;50.878;8.036;2023-03-17T12:07:58;146885.13;;;15.30;54.15
28354;BME280;15603;50.878;8.036;2023-03-17T12:10:49;146885.13;;;15.30;53.87
28354;BME280;15603;50.878;8.036;2023-03-17T12:16:01;146911.91;;;15.41;53.59
28354;BME280;15603;50.878;8.036;2023-03-17T12:18:45;146921.72;;;15.45;53.33
28354;BME280;15603;50.878;8.036;2023-03-17T12:21:26;146876.59;;;15.26;54.41
28354;BME280;15603;50.878;8.036;2023-03-17T12:24:02;146897.28;;;15.35;54.19
28354;BME280;15603;50.878;8.036;2023-03-17T12:26:46;146904.63;;;15.38;53.82
28354;BME280;15603;50.878;8.036;2023-03-17T12:29:36;146888.75;;;15.31;54.25
28354;BME280;15603;50.878;8.036;2023-03-17T12:32:18;146848.56;;;15.15;54.09
28354;BME280;15603;50.878;8.036;2023-03-17T12:34:54;146955.84;;;15.60;54.07
28354;BME280;15603;50.878;8.036;2023-03-17T12:37:25;146975.34;;;15.68;53.64
28354;BME280;15603;50.878;8.036;2023-03-17T12:39:58;146999.81;;;15.78;53.75
28354;BME280;15603;50.878;8.036;2023-03-17T12:42:50;146963.16;;;15.63;52.92
28354;BME280;15603;50.878;8.036;2023-03-17T12:53:46;146926.59;;;15.47;53.08
28354;BME280;15603;50.878;8.036;2023-03-17T12:56:27;146919.25;;;15.44;52.97
28354;BME280;15603;50.878;8.036;2023-03-17T12:59:04;146980.22;;;15.70;53.40
28354;BME280;15603;50.878;8.036;2023-03-17T13:01:36;146985.09;;;15.72;52.99
28354;BME280;15603;50.878;8.036;2023-03-17T13:04:14;146994.94;;;15.76;52.56
28354;BME280;15603;50.878;8.036;2023-03-17T13:06:45;146994.94;;;15.76;51.86
28354;BME280;15603;50.878;8.036;2023-03-17T13:11:59;147053.44;;;16.01;51.82
28354;BME280;15603;50.878;8.036;2023-03-17T13:14:45;147001.00;;;15.79;53.15
28354;BME280;15603;50.878;8.036;2023-03-17T13:22:38;146921.72;;;15.45;52.52
28354;BME280;15603;50.878;8.036;2023-03-17T13:27:52;146987.59;;;15.73;53.17
28354;BME280;15603;50.878;8.036;2023-03-17T13:33:00;147024.19;;;15.88;52.71
28354;BME280;15603;50.878;8.036;2023-03-17T13:49:52;147129.09;;;16.33;52.58
28354;BME280;15603;50.878;8.036;2023-03-17T13:52:47;147166.91;;;16.48;52.22
28354;BME280;15603;50.878;8.036;2023-03-17T14:00:39;147143.75;;;16.39;51.37
28354;BME280;15603;50.878;8.036;2023-03-17T14:03:14;147168.13;;;16.49;50.70
28354;BME280;15603;50.878;8.036;2023-03-17T14:05:47;147135.19;;;16.35;49.98
28354;BME280;15603;50.878;8.036;2023-03-17T14:08:20;147160.84;;;16.46;49.64
28354;BME280;15603;50.878;8.036;2023-03-17T14:10:56;147126.66;;;16.32;50.19
28354;BME280;15603;50.878;8.036;2023-03-17T14:13:34;147154.69;;;16.43;50.60
28354;BME280;15603;50.878;8.036;2023-03-17T14:16:13;147124.22;;;16.31;49.82
28354;BME280;15603;50.878;8.036;2023-03-17T14:18:46;147060.78;;;16.04;50.19
28354;BME280;15603;50.878;8.036;2023-03-17T14:21:24;147033.94;;;15.93;50.91
28354;BME280;15603;50.878;8.036;2023-03-17T14:23:57;147019.31;;;15.86;51.28
28354;BME280;15603;50.878;8.036;2023-03-17T14:26:27;147013.19;;;15.84;51.14
28354;BME280;15603;50.878;8.036;2023-03-17T14:28:59;147013.19;;;15.84;51.19